Aérodrome :
LOGIN :

S'inscrire | Disclaimer

   EN    FR    IT 

 










Légende :    VFR   VFR Marginal   IFR   IFR Intensif   IFR Très Intensif
Visi : 
Plafond : 
>= 8 km
>= 3000ft
5 à 8 km
1000 à 3000 ft
1500m à 5 km
500 à 1000 ft
800 à 1500m
200 à 500 ft
< 800m
< 200 ft
Symboles :   Orages  Brouillard  Fortes neiges  Fortes précipitations  Vent > 20 kt
SIGMETs :   Divers  Orages  Givrage  Turbulence  Onde Orograph.  Cendres Volcan.






- Altitude de l'aérodrome : 306 ft
- Code IATA : EMA


EGNX - Nottingham East Midlands

DERNIER METAR :
  • 281250Z 16015KT 9000 -RA BKN008 05/04 Q0998 RERA

METARs EXPIRÉS :
  • 281220Z 15015G26KT 9999 RA BKN007 04/03 Q0999
  • 281150Z 15015KT 9000 -RA BKN008 04/02 Q1000 RERA
  • 281120Z 15017KT 8000 RA BKN009 03/02 Q1001
  • 281050Z 14015KT 9000 RA SCT006 BKN009 03/02 Q1002
  • 281020Z 15012KT 9000 -RA SCT007 BKN018 03/02 Q1004

TAF TAF EGNX
Valide du 28 à 12h jusqu'au 29 à 12h UTC


281101Z 2812/2912 16016G27KT 9999 SCT007 BKN020
TEMPO 2812/2821 4000 RA BKN006
BECMG 2813/2816 22018G30KT
TEMPO 2821/2904 8000 -RA BKN006
PROB30
TEMPO 2903/2908 19025G40KT 3000 +RA
TEMPO 2904/2908 6000 RA BKN006
BECMG 2905/2908 26017G28KT
PROB30
TEMPO 2908/2912 6000 SHRA BKN011
ATIS : +44 1332 852 852 (ext 3201)



MET'MAP, la Météo Aéronautique d'un coup d'oeil ! - Copyright ORBIFLY Décembre 2007 - Disclaimer

ORBIFLY MET'MAP TEAM :

Programmation & Développement : Alexandra Zaïnal
Sur une idée originale de : Baudouin d'Aumeries
Assistance à la programmation : Marc-Olivier Méhu
Soutien technique & logistique : Manuel Goepfert

Contact : metmap@orbifly.com




SOURCES & CREDITS :

   NOAA